sensor_id;sensor_type;location;lat;lon;timestamp;P1;durP1;ratioP1;P2;durP2;ratioP2
68315;SDS011;55508;54.368;18.406;2024-03-02T00:01:37;64.28;;;44.33;;
68315;SDS011;55508;54.368;18.406;2024-03-02T00:04:05;64.57;;;43.92;;
68315;SDS011;55508;54.368;18.406;2024-03-02T00:06:33;65.75;;;43.75;;
68315;SDS011;55508;54.368;18.406;2024-03-02T00:09:01;69.85;;;48.47;;
68315;SDS011;55508;54.368;18.406;2024-03-02T00:11:29;74.85;;;49.25;;
68315;SDS011;55508;54.368;18.406;2024-03-02T00:13:56;71.03;;;47.78;;
68315;SDS011;55508;54.368;18.406;2024-03-02T00:16:23;73.88;;;51.20;;
68315;SDS011;55508;54.368;18.406;2024-03-02T00:18:51;73.50;;;48.83;;
68315;SDS011;55508;54.368;18.406;2024-03-02T00:21:19;68.80;;;43.30;;
68315;SDS011;55508;54.368;18.406;2024-03-02T00:23:49;72.30;;;48.42;;
68315;SDS011;55508;54.368;18.406;2024-03-02T00:26:19;69.05;;;46.55;;
68315;SDS011;55508;54.368;18.406;2024-03-02T00:28:46;56.85;;;38.30;;
68315;SDS011;55508;54.368;18.406;2024-03-02T00:31:14;70.38;;;46.92;;
68315;SDS011;55508;54.368;18.406;2024-03-02T00:33:42;72.68;;;46.30;;
68315;SDS011;55508;54.368;18.406;2024-03-02T00:36:12;70.95;;;47.00;;
68315;SDS011;55508;54.368;18.406;2024-03-02T00:38:47;69.28;;;43.22;;
68315;SDS011;55508;54.368;18.406;2024-03-02T00:41:21;68.88;;;45.53;;
68315;SDS011;55508;54.368;18.406;2024-03-02T00:46:42;69.45;;;44.15;;
68315;SDS011;55508;54.368;18.406;2024-03-02T00:51:51;71.90;;;45.92;;
68315;SDS011;55508;54.368;18.406;2024-03-02T00:54:20;71.85;;;46.00;;
68315;SDS011;55508;54.368;18.406;2024-03-02T00:56:50;69.35;;;44.72;;
68315;SDS011;55508;54.368;18.406;2024-03-02T00:59:18;68.43;;;44.50;;
68315;SDS011;55508;54.368;18.406;2024-03-02T01:01:47;66.88;;;44.38;;
68315;SDS011;55508;54.368;18.406;2024-03-02T01:04:16;70.82;;;46.55;;
68315;SDS011;55508;54.368;18.406;2024-03-02T01:06:43;69.10;;;46.00;;
68315;SDS011;55508;54.368;18.406;2024-03-02T01:09:11;69.35;;;45.00;;
68315;SDS011;55508;54.368;18.406;2024-03-02T01:11:39;64.38;;;44.50;;
68315;SDS011;55508;54.368;18.406;2024-03-02T01:14:07;70.72;;;45.92;;
68315;SDS011;55508;54.368;18.406;2024-03-02T01:16:34;68.72;;;45.00;;
68315;SDS011;55508;54.368;18.406;2024-03-02T01:19:01;69.70;;;44.53;;
68315;SDS011;55508;54.368;18.406;2024-03-02T01:21:29;67.40;;;45.75;;
68315;SDS011;55508;54.368;18.406;2024-03-02T01:23:56;71.88;;;46.78;;
68315;SDS011;55508;54.368;18.406;2024-03-02T01:26:23;72.68;;;44.72;;
68315;SDS011;55508;54.368;18.406;2024-03-02T01:28:51;67.15;;;44.35;;
68315;SDS011;55508;54.368;18.406;2024-03-02T01:31:18;65.93;;;45.17;;
68315;SDS011;55508;54.368;18.406;2024-03-02T01:33:45;67.25;;;43.20;;
68315;SDS011;55508;54.368;18.406;2024-03-02T01:36:13;64.63;;;42.17;;
68315;SDS011;55508;54.368;18.406;2024-03-02T01:38:40;62.97;;;40.15;;
68315;SDS011;55508;54.368;18.406;2024-03-02T01:41:08;65.95;;;44.80;;
68315;SDS011;55508;54.368;18.406;2024-03-02T01:43:35;70.97;;;45.72;;
68315;SDS011;55508;54.368;18.406;2024-03-02T01:46:07;63.13;;;41.90;;
68315;SDS011;55508;54.368;18.406;2024-03-02T01:48:36;64.43;;;43.30;;
68315;SDS011;55508;54.368;18.406;2024-03-02T01:51:03;67.22;;;44.10;;
68315;SDS011;55508;54.368;18.406;2024-03-02T01:53:34;64.97;;;43.83;;
68315;SDS011;55508;54.368;18.406;2024-03-02T01:56:01;64.95;;;43.75;;
68315;SDS011;55508;54.368;18.406;2024-03-02T01:58:29;64.18;;;43.22;;
68315;SDS011;55508;54.368;18.406;2024-03-02T02:00:56;64.15;;;44.25;;
68315;SDS011;55508;54.368;18.406;2024-03-02T02:03:23;69.40;;;45.45;;
68315;SDS011;55508;54.368;18.406;2024-03-02T02:05:51;65.55;;;42.05;;
68315;SDS011;55508;54.368;18.406;2024-03-02T02:08:18;67.50;;;44.38;;
68315;SDS011;55508;54.368;18.406;2024-03-02T02:10:46;67.18;;;44.28;;
68315;SDS011;55508;54.368;18.406;2024-03-02T02:13:13;66.25;;;43.28;;
68315;SDS011;55508;54.368;18.406;2024-03-02T02:15:40;66.93;;;43.72;;
68315;SDS011;55508;54.368;18.406;2024-03-02T02:18:08;70.90;;;44.15;;
68315;SDS011;55508;54.368;18.406;2024-03-02T02:20:35;66.97;;;43.72;;
68315;SDS011;55508;54.368;18.406;2024-03-02T02:23:03;70.97;;;44.45;;
68315;SDS011;55508;54.368;18.406;2024-03-02T02:25:32;68.47;;;45.05;;
68315;SDS011;55508;54.368;18.406;2024-03-02T02:27:59;63.22;;;44.58;;
68315;SDS011;55508;54.368;18.406;2024-03-02T02:30:31;69.68;;;40.55;;
68315;SDS011;55508;54.368;18.406;2024-03-02T02:35:26;64.57;;;40.97;;
68315;SDS011;55508;54.368;18.406;2024-03-02T02:37:55;71.50;;;43.88;;
68315;SDS011;55508;54.368;18.406;2024-03-02T02:40:23;63.35;;;43.15;;
68315;SDS011;55508;54.368;18.406;2024-03-02T02:42:50;67.97;;;44.70;;
68315;SDS011;55508;54.368;18.406;2024-03-02T02:45:21;68.95;;;43.22;;
68315;SDS011;55508;54.368;18.406;2024-03-02T02:47:49;64.38;;;42.47;;
68315;SDS011;55508;54.368;18.406;2024-03-02T02:50:16;66.20;;;43.30;;
68315;SDS011;55508;54.368;18.406;2024-03-02T02:52:44;65.25;;;43.20;;
68315;SDS011;55508;54.368;18.406;2024-03-02T02:55:12;70.60;;;43.92;;
68315;SDS011;55508;54.368;18.406;2024-03-02T02:57:40;65.90;;;44.45;;
68315;SDS011;55508;54.368;18.406;2024-03-02T03:00:13;66.07;;;43.25;;
68315;SDS011;55508;54.368;18.406;2024-03-02T03:02:44;62.42;;;41.80;;
68315;SDS011;55508;54.368;18.406;2024-03-02T03:05:15;61.95;;;41.45;;
68315;SDS011;55508;54.368;18.406;2024-03-02T03:07:43;70.25;;;43.40;;
68315;SDS011;55508;54.368;18.406;2024-03-02T03:10:12;68.22;;;41.33;;
68315;SDS011;55508;54.368;18.406;2024-03-02T03:12:41;68.00;;;44.17;;
68315;SDS011;55508;54.368;18.406;2024-03-02T03:15:10;67.13;;;44.35;;
68315;SDS011;55508;54.368;18.406;2024-03-02T03:17:39;68.50;;;44.72;;
68315;SDS011;55508;54.368;18.406;2024-03-02T03:20:07;68.03;;;43.83;;
68315;SDS011;55508;54.368;18.406;2024-03-02T03:22:38;64.30;;;44.30;;
68315;SDS011;55508;54.368;18.406;2024-03-02T03:25:06;66.30;;;43.60;;
68315;SDS011;55508;54.368;18.406;2024-03-02T03:27:35;68.57;;;45.22;;
68315;SDS011;55508;54.368;18.406;2024-03-02T03:30:03;65.05;;;43.63;;
68315;SDS011;55508;54.368;18.406;2024-03-02T03:32:33;63.72;;;41.80;;
68315;SDS011;55508;54.368;18.406;2024-03-02T03:35:01;63.00;;;44.17;;
68315;SDS011;55508;54.368;18.406;2024-03-02T03:37:29;69.18;;;45.65;;
68315;SDS011;55508;54.368;18.406;2024-03-02T03:40:05;69.18;;;44.22;;
68315;SDS011;55508;54.368;18.406;2024-03-02T03:42:39;69.35;;;44.85;;
68315;SDS011;55508;54.368;18.406;2024-03-02T03:45:06;72.35;;;44.42;;
68315;SDS011;55508;54.368;18.406;2024-03-02T03:47:34;66.35;;;43.90;;
68315;SDS011;55508;54.368;18.406;2024-03-02T03:50:01;67.35;;;45.45;;
68315;SDS011;55508;54.368;18.406;2024-03-02T03:52:32;65.30;;;43.90;;
68315;SDS011;55508;54.368;18.406;2024-03-02T03:55:00;66.93;;;44.58;;
68315;SDS011;55508;54.368;18.406;2024-03-02T03:57:28;69.10;;;43.40;;
68315;SDS011;55508;54.368;18.406;2024-03-02T03:59:55;69.70;;;44.78;;
68315;SDS011;55508;54.368;18.406;2024-03-02T04:02:22;70.45;;;45.78;;
68315;SDS011;55508;54.368;18.406;2024-03-02T04:04:51;66.22;;;42.15;;
68315;SDS011;55508;54.368;18.406;2024-03-02T04:07:19;67.63;;;42.38;;
68315;SDS011;55508;54.368;18.406;2024-03-02T04:09:46;68.15;;;43.83;;
68315;SDS011;55508;54.368;18.406;2024-03-02T04:12:13;70.35;;;43.53;;
68315;SDS011;55508;54.368;18.406;2024-03-02T04:14:41;67.15;;;43.75;;
68315;SDS011;55508;54.368;18.406;2024-03-02T04:17:09;66.55;;;43.65;;
68315;SDS011;55508;54.368;18.406;2024-03-02T04:19:37;67.95;;;43.55;;
68315;SDS011;55508;54.368;18.406;2024-03-02T04:22:04;63.40;;;43.47;;
68315;SDS011;55508;54.368;18.406;2024-03-02T04:24:44;65.15;;;42.80;;
68315;SDS011;55508;54.368;18.406;2024-03-02T04:27:11;62.35;;;43.08;;
68315;SDS011;55508;54.368;18.406;2024-03-02T04:29:39;65.78;;;44.58;;
68315;SDS011;55508;54.368;18.406;2024-03-02T04:32:06;62.08;;;41.67;;
68315;SDS011;55508;54.368;18.406;2024-03-02T04:34:34;70.13;;;42.78;;
68315;SDS011;55508;54.368;18.406;2024-03-02T04:37:01;67.05;;;43.28;;
68315;SDS011;55508;54.368;18.406;2024-03-02T04:39:28;71.28;;;43.75;;
68315;SDS011;55508;54.368;18.406;2024-03-02T04:41:56;65.13;;;43.58;;
68315;SDS011;55508;54.368;18.406;2024-03-02T04:44:24;65.47;;;43.17;;
68315;SDS011;55508;54.368;18.406;2024-03-02T04:46:51;65.22;;;44.55;;
68315;SDS011;55508;54.368;18.406;2024-03-02T04:49:18;63.15;;;44.60;;
68315;SDS011;55508;54.368;18.406;2024-03-02T04:51:46;67.55;;;43.88;;
68315;SDS011;55508;54.368;18.406;2024-03-02T04:54:14;64.22;;;42.92;;
68315;SDS011;55508;54.368;18.406;2024-03-02T04:56:41;69.15;;;45.22;;
68315;SDS011;55508;54.368;18.406;2024-03-02T04:59:17;68.22;;;43.65;;
68315;SDS011;55508;54.368;18.406;2024-03-02T05:01:47;70.15;;;44.53;;
68315;SDS011;55508;54.368;18.406;2024-03-02T05:04:14;67.43;;;44.10;;
68315;SDS011;55508;54.368;18.406;2024-03-02T05:06:42;68.32;;;44.28;;
68315;SDS011;55508;54.368;18.406;2024-03-02T05:09:09;68.43;;;44.42;;
68315;SDS011;55508;54.368;18.406;2024-03-02T05:11:37;72.10;;;45.67;;
68315;SDS011;55508;54.368;18.406;2024-03-02T05:14:04;65.65;;;43.90;;
68315;SDS011;55508;54.368;18.406;2024-03-02T05:16:35;74.63;;;46.60;;
68315;SDS011;55508;54.368;18.406;2024-03-02T05:19:05;66.40;;;43.80;;
68315;SDS011;55508;54.368;18.406;2024-03-02T05:21:35;71.90;;;46.40;;
68315;SDS011;55508;54.368;18.406;2024-03-02T05:24:03;68.43;;;45.47;;
68315;SDS011;55508;54.368;18.406;2024-03-02T05:26:30;70.10;;;44.58;;
68315;SDS011;55508;54.368;18.406;2024-03-02T05:28:57;69.78;;;43.95;;
68315;SDS011;55508;54.368;18.406;2024-03-02T05:31:25;67.20;;;44.22;;
68315;SDS011;55508;54.368;18.406;2024-03-02T05:33:53;69.97;;;44.78;;
68315;SDS011;55508;54.368;18.406;2024-03-02T05:36:23;73.13;;;45.13;;
68315;SDS011;55508;54.368;18.406;2024-03-02T05:38:51;72.65;;;45.83;;
68315;SDS011;55508;54.368;18.406;2024-03-02T05:41:19;70.20;;;45.72;;
68315;SDS011;55508;54.368;18.406;2024-03-02T05:43:46;70.63;;;45.63;;
68315;SDS011;55508;54.368;18.406;2024-03-02T05:46:13;66.22;;;44.42;;
68315;SDS011;55508;54.368;18.406;2024-03-02T05:48:41;68.47;;;45.10;;
68315;SDS011;55508;54.368;18.406;2024-03-02T05:51:08;70.68;;;46.45;;
68315;SDS011;55508;54.368;18.406;2024-03-02T05:53:35;71.15;;;45.40;;
68315;SDS011;55508;54.368;18.406;2024-03-02T05:56:05;73.07;;;47.15;;
68315;SDS011;55508;54.368;18.406;2024-03-02T05:58:33;70.07;;;45.03;;
68315;SDS011;55508;54.368;18.406;2024-03-02T06:01:19;69.00;;;44.40;;
68315;SDS011;55508;54.368;18.406;2024-03-02T06:03:46;68.63;;;44.58;;
68315;SDS011;55508;54.368;18.406;2024-03-02T06:06:14;70.72;;;44.72;;
68315;SDS011;55508;54.368;18.406;2024-03-02T06:08:41;72.43;;;45.83;;
68315;SDS011;55508;54.368;18.406;2024-03-02T06:11:08;69.45;;;46.83;;
68315;SDS011;55508;54.368;18.406;2024-03-02T06:13:36;70.15;;;44.25;;
68315;SDS011;55508;54.368;18.406;2024-03-02T06:16:03;69.80;;;44.88;;
68315;SDS011;55508;54.368;18.406;2024-03-02T06:18:31;72.50;;;45.78;;
68315;SDS011;55508;54.368;18.406;2024-03-02T06:20:58;75.65;;;46.28;;
68315;SDS011;55508;54.368;18.406;2024-03-02T06:23:25;74.03;;;46.60;;
68315;SDS011;55508;54.368;18.406;2024-03-02T06:25:53;76.10;;;46.63;;
68315;SDS011;55508;54.368;18.406;2024-03-02T06:28:20;72.05;;;46.28;;
68315;SDS011;55508;54.368;18.406;2024-03-02T06:30:47;71.18;;;46.42;;
68315;SDS011;55508;54.368;18.406;2024-03-02T06:33:15;73.45;;;47.20;;
68315;SDS011;55508;54.368;18.406;2024-03-02T06:35:42;74.72;;;46.75;;
68315;SDS011;55508;54.368;18.406;2024-03-02T06:38:10;76.88;;;47.42;;
68315;SDS011;55508;54.368;18.406;2024-03-02T06:40:37;72.57;;;47.47;;
68315;SDS011;55508;54.368;18.406;2024-03-02T06:43:06;70.55;;;46.97;;
68315;SDS011;55508;54.368;18.406;2024-03-02T06:45:33;70.38;;;45.67;;
68315;SDS011;55508;54.368;18.406;2024-03-02T06:48:01;68.57;;;44.45;;
68315;SDS011;55508;54.368;18.406;2024-03-02T06:50:29;74.07;;;47.15;;
68315;SDS011;55508;54.368;18.406;2024-03-02T06:52:56;70.72;;;45.70;;
68315;SDS011;55508;54.368;18.406;2024-03-02T06:55:24;74.38;;;48.58;;
68315;SDS011;55508;54.368;18.406;2024-03-02T06:57:51;76.78;;;48.25;;
68315;SDS011;55508;54.368;18.406;2024-03-02T07:00:19;77.32;;;46.75;;
68315;SDS011;55508;54.368;18.406;2024-03-02T07:02:47;76.43;;;49.25;;
68315;SDS011;55508;54.368;18.406;2024-03-02T07:05:15;78.53;;;49.00;;
68315;SDS011;55508;54.368;18.406;2024-03-02T07:07:42;77.78;;;49.22;;
68315;SDS011;55508;54.368;18.406;2024-03-02T07:10:09;75.22;;;48.05;;
68315;SDS011;55508;54.368;18.406;2024-03-02T07:12:37;76.72;;;48.60;;
68315;SDS011;55508;54.368;18.406;2024-03-02T07:15:05;80.85;;;47.83;;
68315;SDS011;55508;54.368;18.406;2024-03-02T07:17:32;67.55;;;46.67;;
68315;SDS011;55508;54.368;18.406;2024-03-02T07:20:00;71.72;;;47.25;;
68315;SDS011;55508;54.368;18.406;2024-03-02T07:22:27;67.82;;;46.08;;
68315;SDS011;55508;54.368;18.406;2024-03-02T07:24:54;66.75;;;45.25;;
68315;SDS011;55508;54.368;18.406;2024-03-02T07:27:22;70.38;;;45.10;;
68315;SDS011;55508;54.368;18.406;2024-03-02T07:29:49;66.85;;;45.28;;
68315;SDS011;55508;54.368;18.406;2024-03-02T07:32:17;70.30;;;45.40;;
68315;SDS011;55508;54.368;18.406;2024-03-02T07:34:44;65.28;;;44.88;;
68315;SDS011;55508;54.368;18.406;2024-03-02T07:37:12;64.30;;;44.97;;
68315;SDS011;55508;54.368;18.406;2024-03-02T07:39:39;69.40;;;46.13;;
68315;SDS011;55508;54.368;18.406;2024-03-02T07:42:06;67.20;;;44.35;;
68315;SDS011;55508;54.368;18.406;2024-03-02T07:44:34;66.82;;;45.53;;
68315;SDS011;55508;54.368;18.406;2024-03-02T07:47:01;71.30;;;46.75;;
68315;SDS011;55508;54.368;18.406;2024-03-02T07:49:29;72.05;;;47.10;;
68315;SDS011;55508;54.368;18.406;2024-03-02T07:51:56;70.15;;;47.58;;
68315;SDS011;55508;54.368;18.406;2024-03-02T07:54:23;75.57;;;47.97;;
68315;SDS011;55508;54.368;18.406;2024-03-02T07:56:51;77.65;;;47.25;;
68315;SDS011;55508;54.368;18.406;2024-03-02T07:59:19;76.22;;;50.17;;
68315;SDS011;55508;54.368;18.406;2024-03-02T08:01:48;77.32;;;50.92;;
68315;SDS011;55508;54.368;18.406;2024-03-02T08:04:16;81.05;;;50.58;;
68315;SDS011;55508;54.368;18.406;2024-03-02T08:06:43;81.47;;;49.60;;
68315;SDS011;55508;54.368;18.406;2024-03-02T08:09:12;76.18;;;50.28;;
68315;SDS011;55508;54.368;18.406;2024-03-02T08:11:39;86.95;;;49.70;;
68315;SDS011;55508;54.368;18.406;2024-03-02T08:14:07;76.93;;;50.45;;
68315;SDS011;55508;54.368;18.406;2024-03-02T08:16:34;74.10;;;48.03;;
68315;SDS011;55508;54.368;18.406;2024-03-02T08:19:02;81.43;;;50.17;;
68315;SDS011;55508;54.368;18.406;2024-03-02T08:21:30;80.32;;;49.72;;
68315;SDS011;55508;54.368;18.406;2024-03-02T08:23:59;78.03;;;48.83;;
68315;SDS011;55508;54.368;18.406;2024-03-02T08:26:26;74.63;;;49.85;;
68315;SDS011;55508;54.368;18.406;2024-03-02T08:28:56;78.70;;;51.05;;
68315;SDS011;55508;54.368;18.406;2024-03-02T08:31:24;82.30;;;52.20;;
68315;SDS011;55508;54.368;18.406;2024-03-02T08:33:51;80.28;;;51.92;;
68315;SDS011;55508;54.368;18.406;2024-03-02T08:36:18;77.13;;;50.08;;
68315;SDS011;55508;54.368;18.406;2024-03-02T08:38:46;78.97;;;51.10;;
68315;SDS011;55508;54.368;18.406;2024-03-02T08:41:16;73.97;;;47.95;;
68315;SDS011;55508;54.368;18.406;2024-03-02T08:43:43;79.20;;;49.65;;
68315;SDS011;55508;54.368;18.406;2024-03-02T08:46:11;73.45;;;46.97;;
68315;SDS011;55508;54.368;18.406;2024-03-02T08:48:38;72.10;;;45.85;;
68315;SDS011;55508;54.368;18.406;2024-03-02T08:51:06;67.13;;;45.10;;
68315;SDS011;55508;54.368;18.406;2024-03-02T08:53:34;68.25;;;46.70;;
68315;SDS011;55508;54.368;18.406;2024-03-02T08:56:02;67.85;;;45.70;;
68315;SDS011;55508;54.368;18.406;2024-03-02T08:58:32;66.78;;;45.33;;
68315;SDS011;55508;54.368;18.406;2024-03-02T09:00:59;66.47;;;45.80;;
68315;SDS011;55508;54.368;18.406;2024-03-02T09:03:27;67.75;;;45.58;;
68315;SDS011;55508;54.368;18.406;2024-03-02T09:05:54;75.40;;;48.63;;
68315;SDS011;55508;54.368;18.406;2024-03-02T09:08:22;70.57;;;46.60;;
68315;SDS011;55508;54.368;18.406;2024-03-02T09:10:49;68.85;;;44.20;;
68315;SDS011;55508;54.368;18.406;2024-03-02T09:13:16;66.97;;;44.42;;
68315;SDS011;55508;54.368;18.406;2024-03-02T09:15:44;67.05;;;43.95;;
68315;SDS011;55508;54.368;18.406;2024-03-02T09:18:11;67.70;;;44.58;;
68315;SDS011;55508;54.368;18.406;2024-03-02T09:20:39;71.20;;;46.58;;
68315;SDS011;55508;54.368;18.406;2024-03-02T09:23:06;70.63;;;46.10;;
68315;SDS011;55508;54.368;18.406;2024-03-02T09:25:34;66.22;;;45.40;;
68315;SDS011;55508;54.368;18.406;2024-03-02T09:28:01;68.25;;;44.92;;
68315;SDS011;55508;54.368;18.406;2024-03-02T09:30:30;66.57;;;43.92;;
68315;SDS011;55508;54.368;18.406;2024-03-02T09:32:57;65.93;;;45.95;;
68315;SDS011;55508;54.368;18.406;2024-03-02T09:35:27;69.70;;;45.80;;
68315;SDS011;55508;54.368;18.406;2024-03-02T09:37:55;72.00;;;45.53;;
68315;SDS011;55508;54.368;18.406;2024-03-02T09:40:22;68.95;;;45.20;;
68315;SDS011;55508;54.368;18.406;2024-03-02T09:42:50;68.47;;;43.50;;
68315;SDS011;55508;54.368;18.406;2024-03-02T09:45:22;67.95;;;43.58;;
68315;SDS011;55508;54.368;18.406;2024-03-02T09:47:51;69.57;;;44.10;;
68315;SDS011;55508;54.368;18.406;2024-03-02T09:50:18;66.07;;;43.63;;
68315;SDS011;55508;54.368;18.406;2024-03-02T09:52:49;67.65;;;45.67;;
68315;SDS011;55508;54.368;18.406;2024-03-02T09:55:19;67.43;;;44.65;;
68315;SDS011;55508;54.368;18.406;2024-03-02T09:57:47;68.15;;;44.72;;
68315;SDS011;55508;54.368;18.406;2024-03-02T10:00:17;69.22;;;45.67;;
68315;SDS011;55508;54.368;18.406;2024-03-02T10:02:44;62.78;;;43.45;;
68315;SDS011;55508;54.368;18.406;2024-03-02T10:05:25;66.80;;;42.23;;
68315;SDS011;55508;54.368;18.406;2024-03-02T10:07:59;67.82;;;43.78;;
68315;SDS011;55508;54.368;18.406;2024-03-02T10:10:35;69.18;;;44.28;;
68315;SDS011;55508;54.368;18.406;2024-03-02T10:13:11;67.60;;;43.45;;
68315;SDS011;55508;54.368;18.406;2024-03-02T10:15:40;63.13;;;42.35;;
68315;SDS011;55508;54.368;18.406;2024-03-02T10:18:12;65.35;;;43.95;;
68315;SDS011;55508;54.368;18.406;2024-03-02T10:20:43;61.20;;;42.25;;
68315;SDS011;55508;54.368;18.406;2024-03-02T10:23:25;58.25;;;41.17;;
68315;SDS011;55508;54.368;18.406;2024-03-02T10:25:52;60.53;;;42.50;;
68315;SDS011;55508;54.368;18.406;2024-03-02T10:28:24;59.67;;;42.33;;
68315;SDS011;55508;54.368;18.406;2024-03-02T10:30:51;61.45;;;40.60;;
68315;SDS011;55508;54.368;18.406;2024-03-02T10:33:20;59.95;;;41.00;;
68315;SDS011;55508;54.368;18.406;2024-03-02T10:35:48;58.38;;;40.42;;
68315;SDS011;55508;54.368;18.406;2024-03-02T10:38:17;61.30;;;41.63;;
68315;SDS011;55508;54.368;18.406;2024-03-02T10:40:47;61.17;;;41.40;;
68315;SDS011;55508;54.368;18.406;2024-03-02T10:43:15;57.78;;;40.95;;
68315;SDS011;55508;54.368;18.406;2024-03-02T10:45:43;58.80;;;39.70;;
68315;SDS011;55508;54.368;18.406;2024-03-02T10:48:12;56.88;;;40.47;;
68315;SDS011;55508;54.368;18.406;2024-03-02T10:50:40;56.67;;;40.35;;
68315;SDS011;55508;54.368;18.406;2024-03-02T10:53:07;60.60;;;41.53;;
68315;SDS011;55508;54.368;18.406;2024-03-02T10:55:34;55.08;;;39.67;;
68315;SDS011;55508;54.368;18.406;2024-03-02T10:58:04;57.67;;;40.42;;
68315;SDS011;55508;54.368;18.406;2024-03-02T11:00:34;60.95;;;42.00;;
68315;SDS011;55508;54.368;18.406;2024-03-02T11:03:05;58.58;;;41.75;;
68315;SDS011;55508;54.368;18.406;2024-03-02T11:05:34;57.53;;;40.67;;
68315;SDS011;55508;54.368;18.406;2024-03-02T11:08:07;57.47;;;40.70;;
68315;SDS011;55508;54.368;18.406;2024-03-02T11:13:21;56.70;;;40.58;;
68315;SDS011;55508;54.368;18.406;2024-03-02T11:15:51;53.60;;;38.97;;
68315;SDS011;55508;54.368;18.406;2024-03-02T11:18:21;54.28;;;39.00;;
68315;SDS011;55508;54.368;18.406;2024-03-02T11:20:49;52.70;;;38.97;;
68315;SDS011;55508;54.368;18.406;2024-03-02T11:23:16;55.25;;;38.88;;
68315;SDS011;55508;54.368;18.406;2024-03-02T11:25:44;57.60;;;39.60;;
68315;SDS011;55508;54.368;18.406;2024-03-02T11:28:11;49.00;;;37.17;;
68315;SDS011;55508;54.368;18.406;2024-03-02T11:30:48;46.88;;;35.55;;
68315;SDS011;55508;54.368;18.406;2024-03-02T11:33:22;56.08;;;37.90;;
68315;SDS011;55508;54.368;18.406;2024-03-02T11:35:51;48.05;;;36.35;;
68315;SDS011;55508;54.368;18.406;2024-03-02T11:38:18;47.80;;;37.17;;
68315;SDS011;55508;54.368;18.406;2024-03-02T11:40:45;48.90;;;37.42;;
68315;SDS011;55508;54.368;18.406;2024-03-02T11:43:13;49.67;;;37.20;;
68315;SDS011;55508;54.368;18.406;2024-03-02T11:45:42;48.35;;;38.00;;
68315;SDS011;55508;54.368;18.406;2024-03-02T11:48:14;50.40;;;38.20;;
68315;SDS011;55508;54.368;18.406;2024-03-02T11:50:46;49.53;;;36.53;;
68315;SDS011;55508;54.368;18.406;2024-03-02T11:53:14;48.17;;;36.67;;
68315;SDS011;55508;54.368;18.406;2024-03-02T11:55:42;49.25;;;36.67;;
68315;SDS011;55508;54.368;18.406;2024-03-02T11:58:15;51.72;;;37.75;;
68315;SDS011;55508;54.368;18.406;2024-03-02T12:00:53;46.13;;;35.95;;
68315;SDS011;55508;54.368;18.406;2024-03-02T12:03:23;50.03;;;37.25;;
68315;SDS011;55508;54.368;18.406;2024-03-02T12:05:53;49.22;;;35.88;;
68315;SDS011;55508;54.368;18.406;2024-03-02T12:08:21;49.13;;;37.10;;
68315;SDS011;55508;54.368;18.406;2024-03-02T12:11:01;52.95;;;37.63;;
68315;SDS011;55508;54.368;18.406;2024-03-02T12:13:30;47.42;;;35.63;;
68315;SDS011;55508;54.368;18.406;2024-03-02T12:15:58;52.75;;;37.70;;
68315;SDS011;55508;54.368;18.406;2024-03-02T12:18:26;49.13;;;35.33;;
68315;SDS011;55508;54.368;18.406;2024-03-02T12:20:54;50.42;;;34.85;;
68315;SDS011;55508;54.368;18.406;2024-03-02T12:23:25;50.85;;;35.65;;
68315;SDS011;55508;54.368;18.406;2024-03-02T12:25:53;46.75;;;34.92;;
68315;SDS011;55508;54.368;18.406;2024-03-02T12:28:20;48.50;;;34.75;;
68315;SDS011;55508;54.368;18.406;2024-03-02T12:30:48;47.65;;;35.35;;
68315;SDS011;55508;54.368;18.406;2024-03-02T12:33:16;45.25;;;34.15;;
68315;SDS011;55508;54.368;18.406;2024-03-02T12:35:43;49.35;;;35.03;;
68315;SDS011;55508;54.368;18.406;2024-03-02T12:38:11;45.00;;;34.72;;
68315;SDS011;55508;54.368;18.406;2024-03-02T12:40:38;47.03;;;34.88;;
68315;SDS011;55508;54.368;18.406;2024-03-02T12:43:05;49.47;;;34.55;;
68315;SDS011;55508;54.368;18.406;2024-03-02T12:45:36;47.95;;;33.35;;
68315;SDS011;55508;54.368;18.406;2024-03-02T12:48:04;46.78;;;33.92;;
68315;SDS011;55508;54.368;18.406;2024-03-02T12:50:32;46.83;;;34.97;;
68315;SDS011;55508;54.368;18.406;2024-03-02T12:53:00;47.13;;;35.88;;
68315;SDS011;55508;54.368;18.406;2024-03-02T12:55:28;52.13;;;36.10;;
68315;SDS011;55508;54.368;18.406;2024-03-02T12:57:56;45.85;;;34.95;;
68315;SDS011;55508;54.368;18.406;2024-03-02T13:00:26;43.03;;;34.50;;
68315;SDS011;55508;54.368;18.406;2024-03-02T13:02:53;43.63;;;32.63;;
68315;SDS011;55508;54.368;18.406;2024-03-02T13:05:32;41.78;;;32.35;;
68315;SDS011;55508;54.368;18.406;2024-03-02T13:07:59;44.50;;;32.67;;
68315;SDS011;55508;54.368;18.406;2024-03-02T13:10:27;50.28;;;34.97;;
68315;SDS011;55508;54.368;18.406;2024-03-02T13:12:55;49.83;;;34.38;;
68315;SDS011;55508;54.368;18.406;2024-03-02T13:15:25;47.08;;;34.75;;
68315;SDS011;55508;54.368;18.406;2024-03-02T13:17:53;44.08;;;32.67;;
68315;SDS011;55508;54.368;18.406;2024-03-02T13:20:20;49.25;;;33.28;;
68315;SDS011;55508;54.368;18.406;2024-03-02T13:22:49;45.20;;;34.13;;
68315;SDS011;55508;54.368;18.406;2024-03-02T13:25:17;43.38;;;34.20;;
68315;SDS011;55508;54.368;18.406;2024-03-02T13:27:44;49.53;;;34.60;;
68315;SDS011;55508;54.368;18.406;2024-03-02T13:30:11;46.35;;;34.22;;
68315;SDS011;55508;54.368;18.406;2024-03-02T13:32:39;41.35;;;33.03;;
68315;SDS011;55508;54.368;18.406;2024-03-02T13:35:06;38.47;;;31.38;;
68315;SDS011;55508;54.368;18.406;2024-03-02T13:37:33;44.42;;;33.20;;
68315;SDS011;55508;54.368;18.406;2024-03-02T13:40:01;46.92;;;34.10;;
68315;SDS011;55508;54.368;18.406;2024-03-02T13:42:28;48.83;;;33.67;;
68315;SDS011;55508;54.368;18.406;2024-03-02T13:44:56;46.85;;;33.70;;
68315;SDS011;55508;54.368;18.406;2024-03-02T13:47:23;44.53;;;34.55;;
68315;SDS011;55508;54.368;18.406;2024-03-02T13:49:51;49.17;;;35.42;;
68315;SDS011;55508;54.368;18.406;2024-03-02T13:52:18;50.90;;;36.97;;
68315;SDS011;55508;54.368;18.406;2024-03-02T13:54:46;51.75;;;37.53;;
68315;SDS011;55508;54.368;18.406;2024-03-02T13:57:14;50.55;;;37.20;;
68315;SDS011;55508;54.368;18.406;2024-03-02T13:59:42;52.17;;;37.83;;
68315;SDS011;55508;54.368;18.406;2024-03-02T14:02:10;49.45;;;37.25;;
68315;SDS011;55508;54.368;18.406;2024-03-02T14:04:39;49.10;;;36.45;;
68315;SDS011;55508;54.368;18.406;2024-03-02T14:07:06;51.03;;;36.83;;
68315;SDS011;55508;54.368;18.406;2024-03-02T14:09:35;47.53;;;37.83;;
68315;SDS011;55508;54.368;18.406;2024-03-02T14:12:03;50.42;;;36.25;;
68315;SDS011;55508;54.368;18.406;2024-03-02T14:14:32;54.58;;;38.92;;
68315;SDS011;55508;54.368;18.406;2024-03-02T14:16:59;49.30;;;37.20;;
68315;SDS011;55508;54.368;18.406;2024-03-02T14:19:33;47.45;;;37.15;;
68315;SDS011;55508;54.368;18.406;2024-03-02T14:22:00;52.40;;;36.47;;
68315;SDS011;55508;54.368;18.406;2024-03-02T14:24:28;49.88;;;36.63;;
68315;SDS011;55508;54.368;18.406;2024-03-02T14:26:56;49.85;;;36.00;;